createdAt,value
2019-02-14T00:01:40.381Z,6.85
2019-02-14T00:06:45.273Z,6.85
2019-02-14T00:11:51.790Z,5.90
2019-02-14T00:16:57.090Z,6.80
2019-02-14T00:22:02.356Z,7.17
2019-02-14T00:27:07.028Z,5.97
2019-02-14T00:32:12.409Z,6.37
2019-02-14T00:37:17.087Z,6.37
2019-02-14T00:42:21.669Z,5.90
2019-02-14T00:47:27.357Z,6.00
2019-02-14T00:52:32.387Z,6.13
2019-02-14T00:57:37.326Z,6.17
2019-02-14T01:02:42.041Z,6.23
2019-02-14T01:07:49.153Z,6.27
2019-02-14T01:12:55.661Z,5.23
2019-02-14T01:18:01.026Z,6.33
2019-02-14T01:23:08.424Z,6.17
2019-02-14T01:28:13.205Z,5.87
2019-02-14T01:33:18.011Z,5.67
2019-02-14T01:38:24.725Z,5.73
2019-02-14T01:43:29.533Z,6.13
2019-02-14T01:48:35.036Z,5.70
2019-02-14T01:53:39.600Z,6.67
2019-02-14T01:58:44.353Z,6.17
2019-02-14T02:03:49.643Z,6.27
2019-02-14T02:08:53.938Z,6.33
2019-02-14T02:13:59.610Z,5.77
2019-02-14T02:19:04.281Z,5.97
2019-02-14T02:24:09.080Z,5.23
2019-02-14T02:29:13.950Z,6.30
2019-02-14T02:34:18.307Z,6.10
2019-02-14T02:39:22.939Z,6.47
2019-02-14T02:44:27.276Z,6.43
2019-02-14T02:49:32.100Z,6.83
2019-02-14T02:54:36.747Z,6.27
2019-02-14T02:59:41.404Z,6.00
2019-02-14T03:04:45.710Z,7.40
2019-02-14T03:09:49.962Z,7.25
2019-02-14T03:14:54.572Z,6.53
2019-02-14T03:20:00.405Z,6.80
2019-02-14T03:25:05.554Z,5.77
2019-02-14T03:30:10.709Z,6.17
2019-02-14T03:35:17.400Z,6.03
2019-02-14T03:40:21.975Z,6.63
2019-02-14T03:45:26.289Z,6.27
2019-02-14T03:50:30.760Z,6.70
2019-02-14T03:55:35.330Z,5.42
2019-02-14T04:00:39.799Z,6.92
2019-02-14T04:05:44.084Z,5.50
2019-02-14T04:10:48.810Z,6.30
2019-02-14T04:15:53.815Z,6.23
2019-02-14T04:20:58.438Z,5.43
2019-02-14T04:26:02.904Z,6.17
2019-02-14T04:31:07.926Z,5.40
2019-02-14T04:36:12.397Z,5.40
2019-02-14T04:41:18.281Z,5.25
2019-02-14T04:46:22.674Z,5.80
2019-02-14T04:51:27.363Z,6.08
2019-02-14T04:56:32.441Z,5.57
2019-02-14T05:01:37.907Z,5.67
2019-02-14T05:06:44.464Z,5.93
2019-02-14T05:11:49.295Z,5.83
2019-02-14T05:16:54.460Z,5.70
2019-02-14T05:21:59.308Z,5.73
2019-02-14T05:27:04.312Z,6.07
2019-02-14T05:32:09.526Z,5.30
2019-02-14T05:37:14.997Z,5.37
2019-02-14T05:42:20.159Z,6.28
2019-02-14T05:47:24.749Z,5.70
2019-02-14T05:52:29.927Z,5.47
2019-02-14T05:57:34.437Z,5.53
2019-02-14T06:02:40.854Z,5.08
2019-02-14T06:07:45.855Z,6.33
2019-02-14T06:12:50.696Z,5.87
2019-02-14T06:17:57.062Z,5.63
2019-02-14T06:23:02.847Z,5.77
2019-02-14T06:28:07.822Z,5.53
2019-02-14T06:33:15.077Z,6.17
2019-02-14T06:38:21.279Z,6.28
2019-02-14T06:43:26.138Z,6.10
2019-02-14T06:48:31.089Z,5.43
2019-02-14T06:53:35.530Z,6.37
2019-02-14T06:58:40.320Z,6.87
2019-02-14T07:03:45.437Z,5.47
2019-02-14T07:08:50.967Z,5.93
2019-02-14T07:13:57.676Z,6.00
2019-02-14T07:19:02.890Z,6.37
2019-02-14T07:24:07.888Z,7.47
2019-02-14T07:29:12.568Z,8.23
2019-02-14T07:34:16.966Z,7.62
2019-02-14T07:39:21.913Z,6.40
2019-02-14T07:44:26.649Z,6.03
2019-02-14T07:49:31.287Z,6.27
2019-02-14T07:54:35.911Z,5.63
2019-02-14T07:59:40.721Z,4.67
2019-02-14T08:04:45.560Z,4.27
2019-02-14T08:09:49.964Z,5.00
2019-02-14T08:14:54.889Z,5.37
2019-02-14T08:19:59.592Z,5.90
2019-02-14T08:25:04.698Z,5.33
2019-02-14T08:30:11.478Z,4.80
2019-02-14T08:35:15.783Z,5.43
2019-02-14T08:40:23.388Z,5.00
2019-02-14T08:45:28.123Z,5.10
2019-02-14T08:50:33.889Z,4.90
2019-02-14T08:55:38.141Z,3.93
2019-02-14T09:00:42.907Z,3.73
2019-02-14T09:05:47.463Z,3.83
2019-02-14T09:10:54.706Z,3.80
2019-02-14T09:15:59.068Z,4.57
2019-02-14T09:21:04.357Z,4.37
2019-02-14T09:26:08.750Z,3.97
2019-02-14T09:31:13.780Z,3.83
2019-02-14T09:36:18.887Z,3.90
2019-02-14T09:41:24.265Z,4.23
2019-02-14T09:46:29.581Z,3.93
2019-02-14T09:51:35.020Z,4.57
2019-02-14T09:56:39.448Z,4.67
2019-02-14T10:01:45.114Z,4.30
2019-02-14T10:06:49.941Z,3.55
2019-02-14T10:11:55.442Z,4.10
2019-02-14T10:17:00.171Z,4.07
2019-02-14T10:22:04.858Z,3.67
2019-02-14T10:27:10.255Z,4.43
2019-02-14T10:32:15.443Z,4.10
2019-02-14T10:37:20.556Z,4.47
2019-02-14T10:42:26.134Z,4.03
2019-02-14T10:47:30.837Z,4.03
2019-02-14T10:52:37.296Z,4.40
2019-02-14T10:57:41.699Z,4.57
2019-02-14T11:02:46.588Z,4.83
2019-02-14T11:07:51.985Z,4.33
2019-02-14T11:12:59.392Z,4.53
2019-02-14T11:18:04.066Z,4.60
2019-02-14T11:23:08.398Z,4.63
2019-02-14T11:28:13.787Z,4.57
2019-02-14T11:33:19.549Z,4.73
2019-02-14T11:38:24.494Z,3.70
2019-02-14T11:43:29.146Z,4.60
2019-02-14T11:48:33.806Z,4.40
2019-02-14T11:53:38.739Z,4.70
2019-02-14T11:58:43.786Z,4.20
2019-02-14T12:03:48.394Z,4.17
2019-02-14T12:08:59.871Z,4.10
2019-02-14T12:13:59.462Z,3.50
2019-02-14T12:19:04.339Z,4.10
2019-02-14T12:24:10.269Z,3.90
2019-02-14T12:29:15.575Z,4.57
2019-02-14T12:34:19.999Z,4.13
2019-02-14T12:39:24.582Z,3.80
2019-02-14T12:44:30.636Z,3.43
2019-02-14T12:49:35.977Z,3.05
2019-02-14T12:54:41.282Z,3.53
2019-02-14T12:59:47.207Z,3.03
2019-02-14T13:04:52.715Z,3.75
2019-02-14T13:09:57.739Z,4.00
2019-02-14T13:15:02.825Z,4.07
2019-02-14T13:20:08.069Z,3.53
2019-02-14T13:25:20.705Z,3.70
2019-02-14T13:30:25.588Z,3.00
2019-02-14T13:35:31.209Z,2.90
2019-02-14T13:40:36.277Z,3.33
2019-02-14T13:45:41.668Z,3.07
2019-02-14T13:50:46.121Z,3.13
2019-02-14T13:55:53.794Z,2.67
2019-02-14T14:00:58.330Z,3.07
2019-02-14T14:06:05.555Z,2.87
2019-02-14T14:11:11.850Z,2.73
2019-02-14T14:16:16.996Z,2.70
2019-02-14T14:21:21.922Z,4.27
2019-02-14T14:26:28.519Z,3.47
2019-02-14T14:31:36.716Z,4.10
2019-02-14T14:36:46.540Z,3.73
2019-02-14T14:41:52.290Z,3.20
2019-02-14T14:47:03.756Z,3.30
2019-02-14T14:52:08.723Z,2.63
2019-02-14T14:57:13.294Z,2.67
2019-02-14T15:02:18.272Z,3.00
2019-02-14T15:07:26.239Z,2.70
2019-02-14T15:12:30.984Z,3.23
2019-02-14T15:17:40.987Z,3.03
2019-02-14T15:22:47.042Z,3.43
2019-02-14T15:27:54.656Z,3.70
2019-02-14T15:32:59.443Z,4.50
2019-02-14T15:38:04.702Z,3.93
2019-02-14T15:43:10.700Z,3.77
2019-02-14T15:48:15.314Z,3.47
2019-02-14T15:53:24.275Z,3.97
2019-02-14T15:58:30.540Z,4.03
2019-02-14T16:03:39.018Z,4.20
2019-02-14T16:08:46.720Z,4.17
2019-02-14T16:13:52.915Z,4.33
2019-02-14T16:18:59.631Z,3.70
2019-02-14T16:24:04.686Z,3.80
2019-02-14T16:29:09.941Z,3.60
2019-02-14T16:34:15.698Z,4.50
2019-02-14T16:39:22.959Z,8.03
2019-02-14T16:44:28.476Z,11.10
2019-02-14T16:49:34.140Z,5.37
2019-02-14T16:54:40.021Z,4.87
2019-02-14T16:59:45.775Z,5.00
2019-02-14T17:04:50.479Z,10.27
2019-02-14T17:09:57.472Z,4.57
2019-02-14T17:15:05.759Z,3.70
2019-02-14T17:20:11.176Z,3.40
2019-02-14T17:25:17.170Z,7.17
2019-02-14T17:30:22.253Z,13.95
2019-02-14T17:35:30.176Z,17.02
2019-02-14T17:40:35.740Z,12.70
2019-02-14T17:45:40.921Z,14.67
2019-02-14T17:50:46.265Z,6.93
2019-02-14T17:55:50.959Z,6.13
2019-02-14T18:00:56.310Z,6.07
2019-02-14T18:06:01.946Z,5.63
2019-02-14T18:11:07.331Z,5.70
2019-02-14T18:16:14.333Z,5.57
2019-02-14T18:21:19.899Z,6.33
2019-02-14T18:26:26.150Z,8.18
2019-02-14T18:31:31.879Z,7.03
2019-02-14T18:36:38.024Z,7.50
2019-02-14T18:41:43.469Z,6.77
2019-02-14T18:46:49.344Z,6.53
2019-02-14T18:51:56.628Z,6.58
2019-02-14T18:57:02.011Z,9.27
2019-02-14T19:02:07.421Z,9.87
2019-02-14T19:07:13.037Z,8.60
2019-02-14T19:12:22.173Z,7.25
2019-02-14T19:17:27.444Z,8.03
2019-02-14T19:22:32.777Z,7.50
2019-02-14T19:27:37.851Z,7.17
2019-02-14T19:32:43.329Z,5.70
2019-02-14T19:37:48.447Z,6.60
2019-02-14T19:42:56.517Z,6.20
2019-02-14T19:48:02.420Z,6.63
2019-02-14T19:53:07.818Z,7.27
2019-02-14T19:58:14.070Z,7.30
2019-02-14T20:03:20.627Z,8.63
2019-02-14T20:08:27.140Z,7.97
2019-02-14T20:13:33.921Z,7.23
2019-02-14T20:18:38.771Z,7.17
2019-02-14T20:23:45.150Z,6.30
2019-02-14T20:28:50.620Z,5.73
2019-02-14T20:33:57.562Z,6.03
2019-02-14T20:39:06.925Z,6.00
2019-02-14T20:44:14.077Z,7.30
2019-02-14T20:49:19.488Z,7.03
2019-02-14T20:54:24.290Z,6.67
2019-02-14T20:59:32.535Z,5.33
2019-02-14T21:04:37.788Z,4.60
2019-02-14T21:09:42.415Z,4.90
2019-02-14T21:14:48.347Z,5.50
2019-02-14T21:19:52.717Z,5.10
2019-02-14T21:24:57.440Z,5.57
2019-02-14T21:30:03.117Z,5.30
2019-02-14T21:35:08.209Z,5.77
2019-02-14T21:40:13.306Z,5.43
2019-02-14T21:45:18.288Z,6.30
2019-02-14T21:50:25.099Z,6.40
2019-02-14T21:55:31.102Z,5.03
2019-02-14T22:00:38.791Z,4.67
2019-02-14T22:05:44.727Z,6.00
2019-02-14T22:10:49.666Z,5.40
2019-02-14T22:15:54.891Z,5.73
2019-02-14T22:20:59.335Z,5.33
2019-02-14T22:26:04.694Z,5.50
2019-02-14T22:31:09.279Z,5.83
2019-02-14T22:36:14.166Z,6.30
2019-02-14T22:41:18.647Z,5.90
2019-02-14T22:46:23.834Z,6.07
2019-02-14T22:51:28.607Z,5.43
2019-02-14T22:56:33.294Z,6.00
2019-02-14T23:01:37.791Z,5.87
2019-02-14T23:06:42.715Z,5.83
2019-02-14T23:11:48.311Z,6.13
2019-02-14T23:16:53.489Z,6.57
2019-02-14T23:21:58.344Z,6.30
2019-02-14T23:27:02.963Z,5.28
2019-02-14T23:32:10.832Z,5.27
2019-02-14T23:37:15.235Z,5.37
2019-02-14T23:42:19.640Z,6.50
2019-02-14T23:47:24.534Z,5.30
2019-02-14T23:52:33.337Z,6.43
2019-02-14T23:57:37.718Z,6.60
